Terminal Aerodrome Forecast
Issued by NWS

Home | Current Version | Previous Version | Text Only | Print | Product List | Glossary On
Versions: 1 2 3 4 5 6 7 8 9 10 11 12 13 14 15
936
FTUS43 KOAX 290539
TAFBFF
TAF
KBFF 290539Z 2906/3006 13007KT P6SM SCT200
     FM291000 30007KT P6SM SCT250
     FM291800 33013G19KT P6SM SCT250=

USA.gov is the U.S. government's official web portal to all federal, state and local government web resources and services.